Time;durP1;ratioP1;P1;durP2;ratioP2;P2;SDS_P1;SDS_P2;PMS_P1;PMS_P2;Temp;Humidity;BMP_temperature;BMP_pressure;BME280_temperature;BME280_humidity;BME280_pressure;Samples;Min_cycle;Max_cycle;Signal;HPM_P1;HPM_P2
2023/01/10 00:02:17;;;;;;;1.93;1.00;;;5.90;99.90;;;;;;4992325;28;20461;-69
2023/01/10 00:04:42;;;;;;;2.10;1.00;;;5.90;99.90;;;;;;4990633;28;20413;-70
2023/01/10 00:07:08;;;;;;;2.40;1.10;;;5.90;99.90;;;;;;4992929;28;20508;-70
2023/01/10 00:09:33;;;;;;;1.33;0.90;;;5.90;99.90;;;;;;4992594;28;20398;-70
2023/01/10 00:14:43;;;;;;;2.40;1.30;;;5.90;99.90;;;;;;4991784;28;20768;-70
2023/01/10 00:17:08;;;;;;;2.67;0.90;;;6.00;99.90;;;;;;4992528;28;20481;-70
2023/01/10 00:19:34;;;;;;;2.42;0.90;;;5.90;99.90;;;;;;4992504;28;20418;-70
2023/01/10 00:22:07;;;;;;;2.17;1.20;;;5.90;99.90;;;;;;4992288;28;20464;-70
2023/01/10 00:24:32;;;;;;;2.80;1.10;;;5.90;99.90;;;;;;4991162;28;20391;-70
2023/01/10 00:26:58;;;;;;;2.20;1.05;;;5.90;99.90;;;;;;4992238;28;20395;-69
2023/01/10 00:29:29;;;;;;;2.70;1.30;;;6.00;99.90;;;;;;4978803;28;20403;-70
2023/01/10 00:31:55;;;;;;;1.30;0.80;;;5.90;99.90;;;;;;4974575;28;20410;-70
2023/01/10 00:34:21;;;;;;;4.20;1.00;;;5.90;99.90;;;;;;4991349;28;20386;-68
2023/01/10 00:36:47;;;;;;;2.28;0.90;;;5.90;99.90;;;;;;4992050;28;20421;-70
2023/01/10 00:39:14;;;;;;;1.10;1.00;;;5.90;99.90;;;;;;4991698;28;20411;-70
2023/01/10 00:44:24;;;;;;;1.60;0.90;;;5.80;99.90;;;;;;4991185;28;20473;-69
2023/01/10 00:46:51;;;;;;;1.40;0.80;;;5.70;99.90;;;;;;4991871;28;20414;-70
2023/01/10 00:49:16;;;;;;;2.05;1.00;;;5.60;99.90;;;;;;4991748;28;20413;-70
2023/01/10 00:51:42;;;;;;;0.98;0.88;;;5.60;99.90;;;;;;4991860;28;20761;-69
2023/01/10 00:54:09;;;;;;;2.50;1.20;;;5.60;99.90;;;;;;4990616;28;20397;-69
2023/01/10 00:56:35;;;;;;;1.42;0.90;;;5.60;99.90;;;;;;4991762;28;20808;-70
2023/01/10 00:59:00;;;;;;;1.98;1.08;;;5.50;99.90;;;;;;4991472;28;20410;-69
2023/01/10 01:01:26;;;;;;;2.75;1.10;;;5.60;99.90;;;;;;4991439;28;20900;-69
2023/01/10 01:03:51;;;;;;;3.00;1.27;;;5.60;99.90;;;;;;4990706;28;20407;-69
2023/01/10 01:06:17;;;;;;;2.20;1.20;;;5.50;99.90;;;;;;4991466;28;20469;-70
2023/01/10 01:08:43;;;;;;;2.07;1.00;;;5.50;99.90;;;;;;4991509;28;20433;-70
2023/01/10 01:11:08;;;;;;;4.18;1.67;;;5.60;99.90;;;;;;4991345;28;20397;-70
2023/01/10 01:13:35;;;;;;;1.80;0.98;;;5.50;99.90;;;;;;4990945;28;20445;-69
2023/01/10 01:16:00;;;;;;;1.48;0.77;;;5.60;99.90;;;;;;4990728;28;20430;-70
2023/01/10 01:18:26;;;;;;;2.93;1.07;;;5.60;99.90;;;;;;4991324;28;20437;-70
2023/01/10 01:20:55;;;;;;;1.00;0.90;;;5.60;99.90;;;;;;4991484;28;20394;-71
2023/01/10 01:23:20;;;;;;;2.63;1.00;;;5.60;99.90;;;;;;4985109;28;20486;-71
2023/01/10 01:25:50;;;;;;;1.20;0.90;;;5.60;99.90;;;;;;5012843;22;20495;-71
2023/01/10 01:28:15;;;;;;;2.60;1.20;;;5.60;99.90;;;;;;4991026;28;20378;-71
2023/01/10 01:30:41;;;;;;;2.20;1.30;;;5.60;99.90;;;;;;4990966;28;20892;-71
2023/01/10 01:33:06;;;;;;;2.80;1.10;;;5.60;99.90;;;;;;4994515;28;20472;-71
2023/01/10 01:35:32;;;;;;;2.70;0.70;;;5.60;99.90;;;;;;5010707;28;20867;-71
2023/01/10 01:37:58;;;;;;;3.75;1.30;;;5.70;99.90;;;;;;5010476;28;20377;-71
2023/01/10 01:40:23;;;;;;;2.42;1.02;;;5.70;99.90;;;;;;5010700;28;20906;-71
2023/01/10 01:42:54;;;;;;;4.05;1.15;;;5.70;99.90;;;;;;4990768;28;20774;-71
2023/01/10 01:45:22;;;;;;;5.05;1.50;;;5.70;99.90;;;;;;4990986;28;20390;-72
2023/01/10 01:47:59;;;;;;;2.83;1.30;;;5.70;99.90;;;;;;4990978;28;20382;-72
2023/01/10 01:50:39;;;;;;;4.68;1.58;;;5.80;99.90;;;;;;4990973;28;20390;-72
2023/01/10 01:53:12;;;;;;;2.42;1.30;;;5.70;99.90;;;;;;4990192;28;20402;-73
2023/01/10 01:55:38;;;;;;;2.83;1.50;;;5.80;99.90;;;;;;4991018;28;20824;-72
2023/01/10 01:58:08;;;;;;;2.92;1.20;;;5.80;99.90;;;;;;5007568;28;20424;-72
2023/01/10 02:00:34;;;;;;;3.60;1.67;;;5.80;99.90;;;;;;5010472;28;20458;-71
2023/01/10 02:03:01;;;;;;;4.65;1.50;;;5.90;99.90;;;;;;5009480;28;20887;-71
2023/01/10 02:05:26;;;;;;;4.70;1.85;;;5.80;99.90;;;;;;5010820;28;20396;-72
2023/01/10 02:07:55;;;;;;;5.13;1.80;;;5.80;99.90;;;;;;4999102;28;20881;-72
2023/01/10 02:10:42;;;;;;;5.80;1.98;;;5.70;99.90;;;;;;4981196;28;20411;-72
2023/01/10 02:13:12;;;;;;;5.82;1.38;;;5.80;99.90;;;;;;5013340;28;20443;-72
2023/01/10 02:15:38;;;;;;;4.72;1.50;;;5.80;99.90;;;;;;5013943;28;20393;-72
2023/01/10 02:18:04;;;;;;;7.18;1.98;;;5.80;99.90;;;;;;5013903;28;20395;-71
2023/01/10 02:20:39;;;;;;;3.67;1.40;;;5.70;99.90;;;;;;5009098;28;20420;-72
2023/01/10 02:23:23;;;;;;;2.80;1.40;;;5.80;99.90;;;;;;4993609;28;20808;-72
2023/01/10 02:26:10;;;;;;;2.67;1.30;;;5.80;99.90;;;;;;4993756;28;20382;-71
2023/01/10 02:28:40;;;;;;;6.60;1.65;;;5.70;99.90;;;;;;4993667;28;20416;-72
2023/01/10 02:31:58;;;;;;;3.05;1.08;;;5.80;99.90;;;;;;4993768;28;20402;-72
2023/01/10 02:34:54;;;;;;;5.03;1.38;;;5.80;99.90;;;;;;4960140;28;20405;-72
2023/01/10 02:37:44;;;;;;;2.20;1.23;;;5.80;99.90;;;;;;5009910;28;20808;-72
2023/01/10 02:40:21;;;;;;;5.22;1.40;;;5.80;99.90;;;;;;4993885;28;20815;-71
2023/01/10 02:43:11;;;;;;;4.22;1.33;;;5.70;99.90;;;;;;4993158;28;20803;-71
2023/01/10 02:46:09;;;;;;;5.22;1.60;;;5.80;99.90;;;;;;4994071;28;20382;-72
2023/01/10 02:48:35;;;;;;;4.85;1.30;;;5.80;99.90;;;;;;4994883;28;20406;-71
2023/01/10 02:51:21;;;;;;;5.80;1.80;;;5.80;99.90;;;;;;4993685;28;20382;-70
2023/01/10 02:54:02;;;;;;;4.32;1.48;;;5.70;99.90;;;;;;4993032;28;20481;-71
2023/01/10 02:56:50;;;;;;;5.57;1.70;;;5.50;99.90;;;;;;4993571;28;20394;-71
2023/01/10 02:59:52;;;;;;;4.30;1.38;;;5.50;99.90;;;;;;5013025;28;20416;-71
2023/01/10 03:02:24;;;;;;;5.57;1.90;;;5.50;99.90;;;;;;5003239;28;20413;-71
2023/01/10 03:05:08;;;;;;;4.15;1.55;;;5.50;99.90;;;;;;5007967;28;20395;-71
2023/01/10 03:07:42;;;;;;;3.70;1.80;;;5.40;99.90;;;;;;4993195;28;20387;-71
2023/01/10 03:10:20;;;;;;;4.88;1.50;;;5.40;99.90;;;;;;4993446;28;20398;-71
2023/01/10 03:13:09;;;;;;;3.22;1.42;;;5.40;99.90;;;;;;5004982;28;20428;-71
2023/01/10 03:15:37;;;;;;;3.97;1.80;;;5.20;99.90;;;;;;5013220;28;20381;-71
2023/01/10 03:18:07;;;;;;;3.80;1.70;;;5.30;99.90;;;;;;5012356;28;20385;-72
2023/01/10 03:20:36;;;;;;;4.32;1.60;;;5.30;99.90;;;;;;4999738;28;20976;-72
2023/01/10 03:23:04;;;;;;;4.55;2.05;;;5.30;99.90;;;;;;4992417;28;20398;-71
2023/01/10 03:25:34;;;;;;;3.92;1.50;;;5.30;99.90;;;;;;4993156;28;20854;-71
2023/01/10 03:28:11;;;;;;;5.30;1.80;;;5.30;99.90;;;;;;4993036;28;20405;-71
2023/01/10 03:30:48;;;;;;;2.88;1.40;;;5.30;99.90;;;;;;5003598;28;20401;-72
2023/01/10 03:33:17;;;;;;;3.13;1.27;;;5.30;99.90;;;;;;4992235;28;20374;-71
2023/01/10 03:36:10;;;;;;;3.90;1.30;;;5.40;99.90;;;;;;4992902;28;20393;-71
2023/01/10 03:38:50;;;;;;;3.28;1.27;;;5.40;99.90;;;;;;4992809;28;20383;-71
2023/01/10 03:41:29;;;;;;;2.47;1.17;;;5.40;99.90;;;;;;4975124;28;20952;-72
2023/01/10 03:47:16;;;;;;;2.38;0.90;;;5.40;99.90;;;;;;4997293;28;20408;-71
2023/01/10 03:49:46;;;;;;;2.90;1.20;;;5.30;99.90;;;;;;5012051;28;20405;-71
2023/01/10 03:52:15;;;;;;;3.65;1.13;;;5.20;99.90;;;;;;5011021;28;20462;-71
2023/01/10 03:54:44;;;;;;;2.88;1.30;;;5.20;99.90;;;;;;5011436;28;20403;-71
2023/01/10 03:57:22;;;;;;;3.05;0.88;;;5.20;99.90;;;;;;5005584;28;20400;-70
2023/01/10 03:59:51;;;;;;;5.57;1.10;;;5.20;99.90;;;;;;4992394;28;20484;-72
2023/01/10 04:02:17;;;;;;;2.00;1.10;;;5.20;99.90;;;;;;4996847;28;20404;-71
2023/01/10 04:04:42;;;;;;;2.42;0.95;;;5.20;99.90;;;;;;5011240;28;20736;-72
2023/01/10 04:07:08;;;;;;;3.30;1.10;;;5.20;99.90;;;;;;5011855;28;20385;-72
2023/01/10 04:09:34;;;;;;;4.30;1.40;;;5.20;99.90;;;;;;4994476;28;20450;-72
2023/01/10 04:11:59;;;;;;;4.07;1.30;;;5.20;99.90;;;;;;4993404;28;20872;-71
2023/01/10 04:14:26;;;;;;;3.80;1.00;;;5.10;99.90;;;;;;5011013;28;20381;-72
2023/01/10 04:16:51;;;;;;;3.70;1.10;;;5.20;99.90;;;;;;5008888;28;20987;-71
2023/01/10 04:19:17;;;;;;;2.70;0.90;;;5.10;99.90;;;;;;4992123;28;20489;-71
2023/01/10 04:21:43;;;;;;;3.30;1.10;;;5.20;99.90;;;;;;4991915;28;20401;-70
2023/01/10 04:24:08;;;;;;;2.80;0.80;;;5.20;99.90;;;;;;4991245;28;20378;-71
2023/01/10 04:26:34;;;;;;;4.20;1.10;;;5.10;99.90;;;;;;4991644;28;20395;-71
2023/01/10 04:28:59;;;;;;;3.67;1.13;;;5.20;99.90;;;;;;4990501;28;20409;-71
2023/01/10 04:31:25;;;;;;;3.10;1.20;;;5.20;99.90;;;;;;4992002;28;20401;-70
2023/01/10 04:33:51;;;;;;;2.70;1.00;;;5.20;99.90;;;;;;4991187;28;20433;-70
2023/01/10 04:36:17;;;;;;;5.70;1.60;;;5.30;99.90;;;;;;5011593;28;20428;-72
2023/01/10 04:38:42;;;;;;;3.28;1.20;;;5.20;99.90;;;;;;5012130;28;20503;-72
2023/01/10 04:41:08;;;;;;;2.80;1.10;;;5.30;99.90;;;;;;5012358;28;20389;-72
2023/01/10 04:43:34;;;;;;;5.18;1.30;;;5.20;99.90;;;;;;4992553;28;20493;-71
2023/01/10 04:45:59;;;;;;;1.80;0.87;;;5.20;99.90;;;;;;4991955;28;20864;-71
2023/01/10 04:48:26;;;;;;;3.30;1.10;;;5.20;99.90;;;;;;5000349;28;20397;-71
2023/01/10 04:50:52;;;;;;;2.60;0.93;;;5.20;99.90;;;;;;5011502;28;20474;-71
2023/01/10 04:53:18;;;;;;;4.50;1.30;;;5.20;99.90;;;;;;5010676;28;20430;-70
2023/01/10 04:55:45;;;;;;;3.25;1.20;;;5.20;99.90;;;;;;5011272;28;20377;-70
2023/01/10 04:58:10;;;;;;;2.40;1.00;;;5.20;99.90;;;;;;5005302;28;20406;-70
2023/01/10 05:00:36;;;;;;;2.80;0.90;;;5.30;99.90;;;;;;4991674;28;20406;-70
2023/01/10 05:03:02;;;;;;;2.35;0.82;;;5.20;99.90;;;;;;4990813;28;20409;-70
2023/01/10 05:05:28;;;;;;;4.30;1.00;;;5.20;99.90;;;;;;4991399;28;20417;-71
2023/01/10 05:07:54;;;;;;;3.42;1.20;;;5.30;99.90;;;;;;4992435;28;20394;-69
2023/01/10 05:10:19;;;;;;;4.23;1.00;;;5.20;99.90;;;;;;4992985;28;20390;-72
2023/01/10 05:12:45;;;;;;;3.20;1.00;;;5.30;99.90;;;;;;4992580;28;20398;-72
2023/01/10 05:15:11;;;;;;;5.75;1.40;;;5.30;99.90;;;;;;5006066;28;20401;-71
2023/01/10 05:17:36;;;;;;;3.40;1.60;;;5.30;99.90;;;;;;4998034;28;20520;-71
2023/01/10 05:20:02;;;;;;;1.63;0.85;;;5.20;99.90;;;;;;4991343;28;20497;-71
2023/01/10 05:22:28;;;;;;;4.13;1.10;;;5.30;99.90;;;;;;4991001;28;20474;-71
2023/01/10 05:24:53;;;;;;;4.10;1.20;;;5.30;99.90;;;;;;4990840;28;20395;-72
2023/01/10 05:27:19;;;;;;;3.70;0.90;;;5.20;99.90;;;;;;4990924;28;20489;-71
2023/01/10 05:29:44;;;;;;;2.03;0.90;;;5.30;99.90;;;;;;4991224;28;20421;-71
2023/01/10 05:32:10;;;;;;;1.30;0.80;;;5.20;99.90;;;;;;4991374;28;20391;-72
2023/01/10 05:34:35;;;;;;;2.75;1.23;;;5.20;99.90;;;;;;4990305;28;20403;-72
2023/01/10 05:37:01;;;;;;;3.53;1.00;;;5.30;99.90;;;;;;4991255;28;20485;-72
2023/01/10 05:39:26;;;;;;;3.57;1.03;;;5.30;99.90;;;;;;4990769;28;20423;-71
2023/01/10 05:41:52;;;;;;;2.20;1.20;;;5.30;99.90;;;;;;4991808;28;20397;-72
2023/01/10 05:44:18;;;;;;;2.87;1.30;;;5.30;99.90;;;;;;4972239;28;20398;-72
2023/01/10 05:46:43;;;;;;;1.87;0.83;;;5.40;99.90;;;;;;4992469;28;20408;-72
2023/01/10 05:49:09;;;;;;;2.67;0.80;;;5.40;99.90;;;;;;4990197;28;20453;-72
2023/01/10 05:51:34;;;;;;;2.33;0.93;;;5.40;99.90;;;;;;4992747;28;20844;-71
2023/01/10 05:54:00;;;;;;;1.15;0.90;;;5.40;99.90;;;;;;4989695;28;20394;-72
2023/01/10 05:56:25;;;;;;;3.20;0.90;;;5.40;99.90;;;;;;4990523;28;20391;-72
2023/01/10 05:58:51;;;;;;;2.13;1.00;;;5.50;99.90;;;;;;4990403;28;20437;-71
2023/01/10 06:01:17;;;;;;;2.35;0.80;;;5.50;99.90;;;;;;4992155;28;20783;-72
2023/01/10 06:03:43;;;;;;;4.05;1.00;;;5.40;99.90;;;;;;4989998;28;20421;-73
2023/01/10 06:06:09;;;;;;;2.08;0.93;;;5.40;99.90;;;;;;4990706;28;20486;-72
2023/01/10 06:08:35;;;;;;;2.05;1.10;;;5.40;99.90;;;;;;4990574;28;20519;-72
2023/01/10 06:11:04;;;;;;;2.10;1.00;;;5.20;99.90;;;;;;4992293;28;20885;-73
2023/01/10 06:13:30;;;;;;;3.60;1.50;;;5.10;99.90;;;;;;5004389;28;20398;-72
2023/01/10 06:15:56;;;;;;;3.43;1.30;;;5.10;99.90;;;;;;4973293;28;20450;-72
2023/01/10 06:18:21;;;;;;;3.08;1.13;;;5.10;99.90;;;;;;5009844;28;20921;-72
2023/01/10 06:20:47;;;;;;;2.45;1.00;;;5.10;99.90;;;;;;5010488;28;20480;-72
2023/01/10 06:23:12;;;;;;;2.30;1.40;;;5.20;99.90;;;;;;5007393;28;20431;-73
2023/01/10 06:25:40;;;;;;;5.10;1.45;;;5.10;99.90;;;;;;4990555;28;20386;-72
2023/01/10 06:28:07;;;;;;;2.30;1.65;;;5.20;99.90;;;;;;4990974;28;20409;-73
2023/01/10 06:30:34;;;;;;;2.20;1.10;;;5.20;99.90;;;;;;4989846;28;20395;-70
2023/01/10 06:33:01;;;;;;;4.90;1.30;;;5.30;99.90;;;;;;4988131;28;20495;-71
2023/01/10 06:35:27;;;;;;;2.50;1.02;;;5.30;99.90;;;;;;4989438;28;20804;-70
2023/01/10 06:37:52;;;;;;;1.50;1.00;;;5.40;99.90;;;;;;4990609;28;20394;-70
2023/01/10 06:40:18;;;;;;;4.10;1.10;;;5.40;99.90;;;;;;4990569;28;20406;-70
2023/01/10 06:42:43;;;;;;;3.80;1.23;;;5.40;99.90;;;;;;4988805;28;20406;-71
2023/01/10 06:45:10;;;;;;;1.75;0.90;;;5.40;99.90;;;;;;4990603;28;20389;-70
2023/01/10 06:47:36;;;;;;;4.05;1.30;;;5.40;99.90;;;;;;4990593;28;20417;-70
2023/01/10 06:50:02;;;;;;;1.85;0.88;;;5.30;99.90;;;;;;5002362;28;20914;-72
2023/01/10 06:52:27;;;;;;;4.57;1.17;;;5.30;99.90;;;;;;5011606;28;20446;-71
2023/01/10 06:54:53;;;;;;;3.13;1.20;;;5.30;99.90;;;;;;5013204;28;20400;-71
2023/01/10 06:57:18;;;;;;;1.97;0.90;;;5.40;99.90;;;;;;5013496;28;20819;-70
2023/01/10 06:59:44;;;;;;;3.77;1.90;;;5.40;99.90;;;;;;5004098;28;20469;-72
2023/01/10 07:02:11;;;;;;;3.00;1.10;;;5.30;99.90;;;;;;4993761;28;20444;-72
2023/01/10 07:04:36;;;;;;;4.78;1.42;;;5.40;99.90;;;;;;4993067;28;20383;-72
2023/01/10 07:07:02;;;;;;;2.97;1.10;;;5.40;99.90;;;;;;4993647;28;20409;-72
2023/01/10 07:09:28;;;;;;;1.60;1.10;;;5.30;99.90;;;;;;4994794;28;20762;-72
2023/01/10 07:11:54;;;;;;;4.70;1.27;;;5.30;99.90;;;;;;4993683;28;20536;-72
2023/01/10 07:14:19;;;;;;;3.10;1.10;;;5.30;99.90;;;;;;4992872;28;20394;-72
2023/01/10 07:16:45;;;;;;;4.40;1.10;;;5.30;99.90;;;;;;4993497;28;20391;-71
2023/01/10 07:19:12;;;;;;;5.88;1.30;;;5.40;99.90;;;;;;4993554;28;20770;-73
2023/01/10 07:21:38;;;;;;;2.75;1.30;;;5.30;99.90;;;;;;4993540;28;20394;-72
2023/01/10 07:24:04;;;;;;;5.07;1.20;;;5.40;99.90;;;;;;4998373;28;20429;-72
2023/01/10 07:26:29;;;;;;;4.18;1.70;;;5.40;97.40;;;;;;5016790;23;20432;-71
2023/01/10 07:28:55;;;;;;;3.83;1.10;;;5.40;67.90;;;;;;5013150;28;20464;-71
2023/01/10 07:31:22;;;;;;;2.25;1.20;;;5.30;55.70;;;;;;5012925;28;20464;-72
2023/01/10 07:33:49;;;;;;;2.78;1.30;;;5.40;91.70;;;;;;5013595;28;20507;-72
2023/01/10 07:36:15;;;;;;;3.33;1.00;;;5.40;99.90;;;;;;5032558;28;20770;-72
2023/01/10 07:38:41;;;;;;;2.78;1.00;;;5.40;31.90;;;;;;5032456;28;20375;-72
2023/01/10 07:41:06;;;;;;;3.70;0.95;;;5.40;22.50;;;;;;5032567;28;20865;-72
2023/01/10 07:43:32;;;;;;;2.72;0.93;;;5.40;1.00;;;;;;5026361;28;20404;-72
2023/01/10 07:46:03;;;;;;;4.20;1.27;;;5.50;1.20;;;;;;5012606;28;20882;-72
2023/01/10 07:48:29;;;;;;;4.67;1.10;;;5.60;1.00;;;;;;5012734;28;20385;-71
2023/01/10 07:50:59;;;;;;;7.28;1.50;;;5.60;1.00;;;;;;5012425;28;20753;-71
2023/01/10 07:53:26;;;;;;;3.33;1.35;;;5.60;1.00;;;;;;5011508;28;20401;-71
2023/01/10 07:55:52;;;;;;;2.40;1.50;;;5.60;1.00;;;;;;5012708;28;20994;-72
2023/01/10 07:58:17;;;;;;;3.90;1.30;;;5.70;1.00;;;;;;5012419;28;20476;-71
2023/01/10 08:00:44;;;;;;;6.90;1.43;;;5.60;1.00;;;;;;5012360;28;20405;-71
2023/01/10 08:03:11;;;;;;;4.10;1.20;;;5.50;1.00;;;;;;5010364;28;20393;-71
2023/01/10 08:05:37;;;;;;;2.97;1.10;;;5.50;1.00;;;;;;5011985;28;20397;-71
2023/01/10 08:08:04;;;;;;;2.40;1.30;;;5.50;15.00;;;;;;5044155;28;20416;-71
2023/01/10 08:10:30;;;;;;;3.38;1.20;;;5.40;11.30;;;;;;5011111;28;20416;-71
2023/01/10 08:12:55;;;;;;;3.77;1.30;;;5.30;90.70;;;;;;5010081;28;20556;-71
2023/01/10 08:15:21;;;;;;;5.15;1.30;;;5.30;1.00;;;;;;5029795;28;20399;-71
2023/01/10 08:17:47;;;;;;;2.50;1.20;;;5.40;1.00;;;;;;5031915;28;21095;-71
2023/01/10 08:20:12;;;;;;;3.22;1.60;;;5.30;1.00;;;;;;5030162;28;20403;-71
2023/01/10 08:22:38;;;;;;;4.55;1.60;;;5.40;1.00;;;;;;5014823;28;20407;-71
2023/01/10 08:25:03;;;;;;;3.75;1.23;;;5.40;1.00;;;;;;5010707;28;20930;-71
2023/01/10 08:27:29;;;;;;;3.45;1.40;;;5.50;1.00;;;;;;5011621;28;20475;-71
2023/01/10 08:29:54;;;;;;;3.25;1.65;;;5.50;1.00;;;;;;5011910;28;20874;-71
2023/01/10 08:32:21;;;;;;;4.28;1.33;;;5.50;1.00;;;;;;5011371;28;20400;-71
2023/01/10 08:34:46;;;;;;;5.20;1.40;;;5.50;1.00;;;;;;5010831;28;20771;-72
2023/01/10 08:37:12;;;;;;;2.37;1.10;;;5.60;1.00;;;;;;5011643;28;20416;-71
2023/01/10 08:39:38;;;;;;;3.40;1.20;;;5.60;1.00;;;;;;5043587;28;20910;-70
2023/01/10 08:42:04;;;;;;;3.60;1.40;;;5.60;1.00;;;;;;5011662;28;20492;-71
2023/01/10 08:44:29;;;;;;;3.28;1.30;;;5.50;1.00;;;;;;5014706;28;20471;-72
2023/01/10 08:46:55;;;;;;;5.38;1.60;;;5.50;1.00;;;;;;5028127;28;20418;-71
2023/01/10 08:49:21;;;;;;;6.53;1.65;;;5.50;1.00;;;;;;5030152;28;20391;-71
2023/01/10 08:51:46;;;;;;;4.80;1.60;;;5.50;1.00;;;;;;5011481;28;20536;-71
2023/01/10 08:54:12;;;;;;;3.72;1.30;;;5.60;1.00;;;;;;5026019;28;20407;-71
2023/01/10 08:56:39;;;;;;;5.32;1.20;;;5.60;1.00;;;;;;5030964;28;20395;-71
2023/01/10 08:59:05;;;;;;;2.40;1.20;;;5.70;1.00;;;;;;5029828;28;20457;-72
2023/01/10 09:01:30;;;;;;;3.78;1.40;;;5.70;1.00;;;;;;5031054;28;20383;-72
2023/01/10 09:03:56;;;;;;;3.67;1.53;;;5.80;1.00;;;;;;5017759;28;20476;-71
2023/01/10 09:06:23;;;;;;;6.10;1.93;;;5.90;1.00;;;;;;5025253;28;20915;-71
2023/01/10 09:08:48;;;;;;;3.35;1.10;;;6.10;1.00;;;;;;5019720;28;20471;-71
2023/01/10 09:11:14;;;;;;;5.10;1.63;;;6.30;1.00;;;;;;5011462;28;20393;-71
2023/01/10 09:13:41;;;;;;;6.87;2.67;;;6.30;1.00;;;;;;5010541;28;20883;-72
2023/01/10 09:16:07;;;;;;;4.23;1.80;;;6.40;1.00;;;;;;5014497;28;20407;-72
2023/01/10 09:18:33;;;;;;;3.88;1.55;;;6.30;1.00;;;;;;5010950;28;20732;-72
2023/01/10 09:20:58;;;;;;;3.70;1.75;;;6.30;1.00;;;;;;5009675;28;20450;-72
2023/01/10 09:23:24;;;;;;;4.45;1.40;;;6.30;1.00;;;;;;5010360;28;20860;-72
2023/01/10 09:25:52;;;;;;;3.60;1.20;;;6.40;1.00;;;;;;5014350;28;20857;-72
2023/01/10 09:28:19;;;;;;;5.35;2.20;;;6.40;1.00;;;;;;5030476;28;20892;-72
2023/01/10 09:30:45;;;;;;;4.57;1.60;;;6.60;1.00;;;;;;5030687;28;20935;-72
2023/01/10 09:33:12;;;;;;;3.93;1.40;;;6.50;1.00;;;;;;5029624;28;20433;-72
2023/01/10 09:35:39;;;;;;;3.55;1.33;;;6.40;1.00;;;;;;5030602;28;20379;-72
2023/01/10 09:38:07;;;;;;;1.95;1.08;;;6.50;1.00;;;;;;5010988;28;20400;-72
2023/01/10 09:40:45;;;;;;;4.10;1.13;;;6.50;1.00;;;;;;5010936;28;20433;-72
2023/01/10 09:43:27;;;;;;;6.55;1.60;;;6.40;1.00;;;;;;5010047;28;20381;-71
2023/01/10 09:46:20;;;;;;;4.50;1.60;;;6.10;1.00;;;;;;5010456;28;20385;-72
2023/01/10 09:49:14;;;;;;;3.85;1.50;;;6.00;1.00;;;;;;5010867;28;20392;-72
2023/01/10 09:51:47;;;;;;;4.30;1.42;;;6.00;1.00;;;;;;5009339;28;20508;-72
2023/01/10 09:54:31;;;;;;;6.00;1.30;;;6.00;1.00;;;;;;5010137;28;20499;-72
2023/01/10 09:56:59;;;;;;;6.65;1.50;;;6.00;1.00;;;;;;5010369;28;20894;-72
2023/01/10 09:59:47;;;;;;;7.95;1.80;;;6.00;1.00;;;;;;5010639;28;20404;-72
2023/01/10 10:02:19;;;;;;;3.30;1.33;;;6.00;1.00;;;;;;5010539;28;21124;-72
2023/01/10 10:04:57;;;;;;;6.03;1.50;;;5.90;1.00;;;;;;5010194;28;20381;-72
2023/01/10 10:07:23;;;;;;;6.33;1.60;;;6.00;1.00;;;;;;5024097;28;20579;-71
2023/01/10 10:09:48;;;;;;;5.87;1.30;;;6.00;1.00;;;;;;5010502;28;20400;-72
2023/01/10 10:12:17;;;;;;;4.90;1.33;;;6.00;1.00;;;;;;5010363;28;20411;-72
2023/01/10 10:15:08;;;;;;;7.53;1.90;;;6.10;1.00;;;;;;5009831;28;20391;-71
2023/01/10 10:18:01;;;;;;;7.40;1.70;;;6.10;1.00;;;;;;5007924;28;20411;-72
2023/01/10 10:20:36;;;;;;;3.80;1.65;;;6.20;1.00;;;;;;5016627;28;20948;-72
2023/01/10 10:23:29;;;;;;;4.00;1.50;;;6.20;1.00;;;;;;5009630;28;20472;-72
2023/01/10 10:26:10;;;;;;;4.50;1.63;;;6.10;1.00;;;;;;5010419;28;20439;-72
2023/01/10 10:28:45;;;;;;;9.13;2.17;;;6.20;1.00;;;;;;5045780;28;20806;-72
2023/01/10 10:31:39;;;;;;;6.38;1.80;;;6.20;1.00;;;;;;5013686;28;20400;-72
2023/01/10 10:34:31;;;;;;;7.60;2.00;;;6.20;1.00;;;;;;5013417;28;20410;-72
2023/01/10 10:37:07;;;;;;;5.72;1.58;;;6.30;1.00;;;;;;5014051;28;20391;-72
2023/01/10 10:39:43;;;;;;;4.87;1.70;;;6.20;1.00;;;;;;5013754;28;20412;-72
2023/01/10 10:42:13;;;;;;;4.38;1.90;;;6.20;1.00;;;;;;5013955;28;20385;-72
2023/01/10 10:45:03;;;;;;;4.65;1.80;;;6.20;1.00;;;;;;5013276;28;20420;-72
2023/01/10 10:47:32;;;;;;;5.00;2.03;;;6.20;1.00;;;;;;5013592;28;21001;-73
2023/01/10 10:50:32;;;;;;;6.03;2.30;;;6.20;1.00;;;;;;5013491;28;20415;-72
2023/01/10 10:53:00;;;;;;;6.68;2.08;;;6.50;1.00;;;;;;4995966;28;20447;-72
2023/01/10 10:55:33;;;;;;;8.30;2.40;;;6.60;1.00;;;;;;5013783;28;20416;-72
2023/01/10 10:58:01;;;;;;;7.75;2.70;;;6.60;1.00;;;;;;5014457;28;20387;-72
2023/01/10 11:00:28;;;;;;;5.93;1.98;;;6.60;1.00;;;;;;5033154;28;20411;-72
2023/01/10 11:03:33;;;;;;;7.43;2.60;;;6.80;1.00;;;;;;5032319;28;20391;-72
2023/01/10 11:06:00;;;;;;;6.88;2.42;;;7.00;1.00;;;;;;4955808;28;20446;-73
2023/01/10 11:08:28;;;;;;;8.63;2.33;;;6.80;1.00;;;;;;5016080;28;20947;-72
2023/01/10 11:10:57;;;;;;;6.88;2.42;;;6.80;1.00;;;;;;5027032;28;20401;-73
2023/01/10 11:13:31;;;;;;;11.60;2.70;;;7.00;1.00;;;;;;5012401;28;20400;-72
2023/01/10 11:15:58;;;;;;;5.60;2.17;;;7.10;1.00;;;;;;5013334;28;20456;-72
2023/01/10 11:18:29;;;;;;;7.90;2.05;;;7.30;99.90;;;;;;5013195;28;20872;-72
2023/01/10 11:21:02;;;;;;;5.53;1.90;;;7.30;99.90;;;;;;5012784;28;20455;-72
2023/01/10 11:23:35;;;;;;;7.75;2.00;;;7.20;1.00;;;;;;5012235;28;20395;-72
2023/01/10 11:26:01;;;;;;;5.07;1.87;;;7.30;1.00;;;;;;5012988;28;20389;-72
2023/01/10 11:28:30;;;;;;;5.75;2.05;;;7.50;99.90;;;;;;5023009;28;20520;-72
2023/01/10 11:30:57;;;;;;;3.78;1.48;;;7.80;1.00;;;;;;5032459;28;20804;-72
2023/01/10 11:33:30;;;;;;;5.32;1.50;;;7.90;1.00;;;;;;5031840;28;20402;-73
2023/01/10 11:36:08;;;;;;;5.50;1.45;;;8.20;1.00;;;;;;5032900;28;20470;-72
2023/01/10 11:38:34;;;;;;;7.35;1.75;;;8.40;1.00;;;;;;5021871;28;20439;-73
2023/01/10 11:41:22;;;;;;;6.30;1.50;;;8.40;99.90;;;;;;5024883;28;20739;-73
2023/01/10 11:43:47;;;;;;;5.32;1.70;;;8.60;26.10;;;;;;5031775;28;20389;-73
2023/01/10 11:46:22;;;;;;;7.07;2.30;;;8.90;1.00;;;;;;5032429;28;20474;-72
2023/01/10 11:49:05;;;;;;;5.03;1.67;;;8.90;1.00;;;;;;5032664;28;20474;-73
2023/01/10 11:51:36;;;;;;;4.88;2.53;;;8.80;99.90;;;;;;5016718;28;20425;-72
2023/01/10 11:54:09;;;;;;;7.65;3.28;;;8.40;99.90;;;;;;5043746;28;20385;-71
2023/01/10 11:56:38;;;;;;;4.22;1.85;;;7.90;1.00;;;;;;5012279;28;20438;-72
2023/01/10 11:59:17;;;;;;;5.55;2.20;;;7.70;1.00;;;;;;5012235;28;20494;-72
2023/01/10 12:01:52;;;;;;;6.38;1.90;;;7.70;26.50;;;;;;5012558;28;20393;-71
2023/01/10 12:04:20;;;;;;;5.35;1.80;;;8.10;1.00;;;;;;5043471;28;20407;-72
2023/01/10 12:06:56;;;;;;;5.90;1.75;;;8.30;1.00;;;;;;5012143;28;20385;-72
2023/01/10 12:09:34;;;;;;;3.42;2.05;;;8.70;1.00;;;;;;5026715;28;20837;-71
2023/01/10 12:12:24;;;;;;;6.20;1.88;;;8.40;1.00;;;;;;5026307;28;20443;-72
2023/01/10 12:14:51;;;;;;;8.18;2.42;;;8.20;99.90;;;;;;5011528;28;20479;-72
2023/01/10 12:17:32;;;;;;;4.60;1.50;;;8.50;99.90;;;;;;5011935;28;20502;-72
2023/01/10 12:20:00;;;;;;;6.38;1.70;;;9.70;99.90;;;;;;5012088;28;20436;-72
2023/01/10 12:22:35;;;;;;;4.67;2.00;;;10.10;1.00;;;;;;5019939;28;20894;-72
2023/01/10 12:25:07;;;;;;;4.50;2.00;;;10.10;1.00;;;;;;5018147;28;20423;-72
2023/01/10 12:27:33;;;;;;;5.25;1.85;;;10.40;1.00;;;;;;5011624;28;20379;-73
2023/01/10 12:30:14;;;;;;;4.10;2.10;;;9.90;1.00;;;;;;5011776;28;20535;-73
2023/01/10 12:32:51;;;;;;;5.50;2.00;;;9.30;99.90;;;;;;5042850;28;20392;-73
2023/01/10 12:35:37;;;;;;;5.22;1.42;;;9.10;99.90;;;;;;5025966;28;20403;-73
2023/01/10 12:38:19;;;;;;;7.10;2.20;;;8.70;99.90;;;;;;5031377;28;20800;-73
2023/01/10 12:40:59;;;;;;;4.28;2.05;;;8.20;99.90;;;;;;5031422;28;20481;-73
2023/01/10 12:46:51;;;;;;;6.75;1.70;;;8.60;1.00;;;;;;5030931;28;20457;-73
2023/01/10 12:49:55;;;;;;;4.03;1.80;;;8.60;1.00;;;;;;5030671;28;20466;-73
2023/01/10 12:52:46;;;;;;;4.80;1.85;;;8.60;99.90;;;;;;4997703;28;20415;-73
2023/01/10 12:55:20;;;;;;;5.78;1.50;;;8.60;1.00;;;;;;5012761;28;20401;-74
2023/01/10 12:57:52;;;;;;;4.60;1.40;;;8.70;1.00;;;;;;5011915;28;20392;-73
2023/01/10 13:00:30;;;;;;;4.30;1.92;;;8.60;1.00;;;;;;5011357;28;20409;-72
2023/01/10 13:02:59;;;;;;;4.50;1.70;;;8.40;1.00;;;;;;5010745;28;20421;-72
2023/01/10 13:05:27;;;;;;;5.57;1.50;;;8.20;1.00;;;;;;5011495;28;20400;-72
2023/01/10 13:08:08;;;;;;;6.50;2.13;;;8.30;99.90;;;;;;5011240;28;20435;-72
2023/01/10 13:10:40;;;;;;;3.80;1.50;;;8.40;99.90;;;;;;5018219;28;20399;-72
2023/01/10 13:13:21;;;;;;;7.40;1.50;;;8.60;2.50;;;;;;5030308;28;20422;-72
2023/01/10 13:15:53;;;;;;;6.00;1.40;;;8.70;1.00;;;;;;5030834;28;20391;-71
2023/01/10 13:18:25;;;;;;;4.45;1.45;;;8.70;1.00;;;;;;5030717;28;20462;-71
2023/01/10 13:21:04;;;;;;;3.30;1.42;;;8.60;1.00;;;;;;5015561;28;20504;-72
2023/01/10 13:23:32;;;;;;;4.00;1.40;;;8.50;99.90;;;;;;5010265;28;20905;-72
2023/01/10 13:26:12;;;;;;;5.15;2.10;;;8.80;99.90;;;;;;5010778;28;20419;-72
2023/01/10 13:28:51;;;;;;;4.45;1.52;;;8.80;1.00;;;;;;5042507;28;20459;-72
2023/01/10 13:31:31;;;;;;;6.63;1.70;;;8.70;1.00;;;;;;5028181;28;20411;-72